Time;durP1;ratioP1;P1;durP2;ratioP2;P2;SDS_P1;SDS_P2;PMS_P1;PMS_P2;Temp;Humidity;BMP_temperature;BMP_pressure;BME280_temperature;BME280_humidity;BME280_pressure;Samples;Min_cycle;Max_cycle;Signal;HPM_P1;HPM_P2
2022/10/08 00:00:54;;;;;;;9.53;3.17;;;13.80;10.00;;;;;;5017839;28;20230;-87
2022/10/08 00:03:23;;;;;;;10.43;3.33;;;13.80;10.00;;;;;;5023607;28;20179;-86
2022/10/08 00:06:02;;;;;;;8.73;3.33;;;13.80;12.00;;;;;;5037624;28;20177;-85
2022/10/08 00:08:29;;;;;;;13.30;3.37;;;13.90;14.50;;;;;;5029395;28;20222;-85
2022/10/08 00:11:02;;;;;;;8.97;3.33;;;13.60;13.30;;;;;;5023337;28;20178;-87
2022/10/08 00:13:39;;;;;;;8.40;3.50;;;13.90;12.90;;;;;;5033840;28;20176;-86
2022/10/08 00:16:27;;;;;;;11.37;3.70;;;14.10;13.40;;;;;;5031756;28;20174;-87
2022/10/08 00:18:56;;;;;;;7.53;3.00;;;13.90;11.30;;;;;;5032076;28;20246;-86
2022/10/08 00:21:26;;;;;;;12.30;3.47;;;13.90;15.00;;;;;;5031473;28;20204;-87
2022/10/08 00:23:53;;;;;;;12.40;3.63;;;14.00;15.80;;;;;;5031979;28;20249;-86
2022/10/08 00:26:23;;;;;;;13.00;3.27;;;14.00;14.10;;;;;;5034266;28;20173;-86
2022/10/08 00:28:50;;;;;;;9.03;2.90;;;13.90;15.70;;;;;;5032558;28;20172;-85
2022/10/08 00:31:19;;;;;;;7.57;2.83;;;13.90;17.00;;;;;;5027913;28;20181;-87
2022/10/08 00:33:53;;;;;;;9.80;3.07;;;14.00;16.10;;;;;;5019464;28;20176;-86
2022/10/08 00:36:19;;;;;;;10.30;3.10;;;14.00;16.60;;;;;;5025369;28;20177;-87
2022/10/08 00:38:45;;;;;;;12.03;3.30;;;14.00;13.80;;;;;;5014513;28;20205;-87
2022/10/08 00:41:22;;;;;;;11.17;3.23;;;14.10;13.50;;;;;;5002436;28;20177;-87
2022/10/08 00:43:52;;;;;;;8.90;3.20;;;14.10;16.10;;;;;;4997820;28;20181;-87
2022/10/08 00:46:29;;;;;;;8.93;3.13;;;14.30;15.40;;;;;;4999135;28;20208;-86
2022/10/08 00:49:17;;;;;;;9.03;3.50;;;14.10;17.00;;;;;;5009317;28;20184;-88
2022/10/08 00:51:48;;;;;;;11.97;3.40;;;14.20;13.70;;;;;;5011763;28;20180;-87
2022/10/08 00:54:16;;;;;;;9.73;3.60;;;14.10;18.40;;;;;;5007399;28;20193;-88
2022/10/08 00:56:43;;;;;;;10.67;2.83;;;14.00;21.80;;;;;;5001453;28;20174;-88
2022/10/08 00:59:11;;;;;;;9.43;2.80;;;14.10;22.20;;;;;;4998820;28;20259;-88
2022/10/08 01:01:41;;;;;;;8.43;3.00;;;14.10;22.00;;;;;;4997677;28;20200;-88
2022/10/08 01:04:10;;;;;;;12.30;3.57;;;14.10;23.00;;;;;;4997344;28;20181;-88
2022/10/08 01:07:17;;;;;;;9.20;3.10;;;14.10;26.30;;;;;;4996758;28;20180;-87
2022/10/08 01:09:49;;;;;;;7.37;3.20;;;14.10;27.30;;;;;;4995496;28;20199;-88
2022/10/08 01:12:32;;;;;;;7.13;2.80;;;14.10;27.70;;;;;;4997105;28;20165;-87
2022/10/08 01:15:10;;;;;;;10.87;3.37;;;14.20;26.10;;;;;;4997044;28;20186;-89
2022/10/08 01:18:05;;;;;;;9.30;3.00;;;14.30;23.30;;;;;;5009729;28;20283;-87
2022/10/08 01:20:45;;;;;;;10.57;3.00;;;14.30;25.00;;;;;;5000765;28;20208;-86
2022/10/08 01:23:32;;;;;;;9.60;2.70;;;14.40;30.80;;;;;;4997084;28;20192;-86
2022/10/08 01:26:21;;;;;;;10.47;3.13;;;14.40;31.00;;;;;;4997987;28;20256;-85
2022/10/08 01:29:04;;;;;;;12.23;3.17;;;14.40;40.50;;;;;;4994934;28;20187;-86
2022/10/08 01:31:34;;;;;;;5.87;2.37;;;14.30;51.00;;;;;;4994954;28;20203;-86
2022/10/08 01:34:24;;;;;;;10.93;2.80;;;14.20;66.60;;;;;;4994613;28;20184;-86
2022/10/08 01:36:53;;;;;;;11.53;3.10;;;14.00;82.40;;;;;;4994855;28;20176;-84
2022/10/08 01:39:21;;;;;;;13.53;3.40;;;13.90;92.10;;;;;;4999165;28;20251;-87
2022/10/08 01:41:58;;;;;;;9.60;3.20;;;13.80;94.30;;;;;;5001978;28;20187;-88
2022/10/08 01:44:32;;;;;;;9.67;3.20;;;13.70;98.30;;;;;;4996688;28;20182;-87
2022/10/08 01:47:01;;;;;;;9.50;3.20;;;13.70;99.90;;;;;;4996936;28;20179;-87
2022/10/08 01:49:37;;;;;;;10.60;3.47;;;13.70;99.90;;;;;;4981497;28;20594;-88
2022/10/08 01:52:11;;;;;;;11.37;3.43;;;13.70;99.90;;;;;;4994914;28;20619;-87
2022/10/08 01:54:41;;;;;;;7.70;3.43;;;13.70;99.90;;;;;;4996505;28;20183;-88
2022/10/08 01:57:11;;;;;;;9.87;3.77;;;13.60;99.90;;;;;;4995540;28;20258;-88
2022/10/08 01:59:49;;;;;;;9.37;3.80;;;13.70;99.90;;;;;;4995899;28;20183;-89
2022/10/08 02:02:23;;;;;;;11.50;3.60;;;13.70;99.90;;;;;;5008357;28;20240;-87
2022/10/08 02:04:52;;;;;;;9.33;3.70;;;13.60;99.90;;;;;;5010103;28;20170;-89
2022/10/08 02:07:21;;;;;;;8.07;3.47;;;13.50;99.90;;;;;;5009872;28;20187;-88
2022/10/08 02:09:50;;;;;;;13.93;4.00;;;13.60;99.90;;;;;;5011374;28;20192;-88
2022/10/08 02:12:17;;;;;;;8.03;3.40;;;13.60;99.90;;;;;;5006603;28;20172;-87
2022/10/08 02:14:48;;;;;;;8.13;3.00;;;13.60;99.90;;;;;;5007270;28;20219;-87
2022/10/08 02:17:14;;;;;;;10.73;3.63;;;13.50;99.90;;;;;;5008027;28;20221;-86
2022/10/08 02:19:55;;;;;;;11.50;3.63;;;13.40;99.90;;;;;;5003584;28;20647;-88
2022/10/08 02:22:29;;;;;;;11.10;3.60;;;13.40;99.90;;;;;;5010341;28;20230;-89
2022/10/08 02:25:05;;;;;;;9.87;3.77;;;13.50;99.90;;;;;;5012922;28;20192;-88
2022/10/08 02:28:13;;;;;;;12.30;3.83;;;13.70;99.90;;;;;;5018014;28;20190;-89
2022/10/08 02:31:13;;;;;;;10.23;3.40;;;13.60;99.90;;;;;;5016598;28;20206;-88
2022/10/08 02:34:07;;;;;;;9.47;3.77;;;13.70;99.90;;;;;;5006716;28;20232;-90
2022/10/08 02:36:43;;;;;;;7.00;3.47;;;13.70;99.90;;;;;;5001763;28;20187;-90
2022/10/08 02:39:14;;;;;;;8.00;3.30;;;13.70;99.90;;;;;;4994643;28;20249;-90
2022/10/08 02:41:50;;;;;;;10.67;4.33;;;13.70;99.90;;;;;;4995253;28;20187;-90
2022/10/08 02:44:34;;;;;;;14.57;4.73;;;13.90;99.90;;;;;;4994044;28;20561;-90
2022/10/08 02:47:04;;;;;;;14.10;4.33;;;13.90;99.90;;;;;;4994575;28;20635;-90
2022/10/08 02:49:38;;;;;;;8.83;3.70;;;13.90;99.90;;;;;;4995053;28;20172;-90
2022/10/08 02:52:08;;;;;;;8.63;4.17;;;13.80;99.90;;;;;;4994370;28;20186;-91
2022/10/08 02:54:41;;;;;;;12.63;3.63;;;13.90;99.90;;;;;;4994741;28;20190;-89
2022/10/08 02:57:20;;;;;;;9.37;3.90;;;13.80;99.90;;;;;;4994805;28;20175;-91
2022/10/08 02:59:47;;;;;;;9.93;4.00;;;13.80;99.90;;;;;;4995265;28;20172;-91
2022/10/08 03:02:35;;;;;;;14.03;4.50;;;13.90;99.90;;;;;;4997004;28;20178;-90
2022/10/08 03:05:05;;;;;;;7.37;3.43;;;13.90;99.90;;;;;;4999845;28;20616;-91
2022/10/08 03:07:33;;;;;;;13.13;4.10;;;13.90;99.90;;;;;;4999153;28;20199;-90
2022/10/08 03:10:04;;;;;;;8.83;3.77;;;14.00;99.90;;;;;;4998777;28;20260;-90
2022/10/08 03:12:31;;;;;;;9.23;3.53;;;13.80;99.90;;;;;;4999372;28;20179;-91
2022/10/08 03:14:57;;;;;;;13.50;4.27;;;13.80;99.90;;;;;;5000290;28;20172;-90
2022/10/08 03:17:36;;;;;;;7.90;4.03;;;13.70;99.90;;;;;;5000588;28;20214;-90
2022/10/08 03:20:04;;;;;;;8.67;3.73;;;13.80;99.90;;;;;;5000097;28;20225;-90
2022/10/08 03:22:31;;;;;;;10.03;3.63;;;13.80;99.90;;;;;;4999278;28;20235;-90
2022/10/08 03:24:57;;;;;;;10.03;4.20;;;13.90;99.90;;;;;;5001116;28;20191;-90
2022/10/08 03:27:23;;;;;;;8.40;3.87;;;13.90;99.90;;;;;;4999672;28;20243;-90
2022/10/08 03:29:49;;;;;;;10.23;4.30;;;13.80;99.90;;;;;;5008312;28;20191;-90
2022/10/08 03:32:15;;;;;;;8.77;4.00;;;13.80;99.90;;;;;;5015108;28;20164;-88
2022/10/08 03:34:40;;;;;;;10.33;4.57;;;13.90;99.90;;;;;;5020036;28;20194;-88
2022/10/08 03:37:06;;;;;;;9.93;4.33;;;14.00;99.90;;;;;;5018464;28;20211;-91
2022/10/08 03:39:32;;;;;;;8.33;3.47;;;14.00;99.90;;;;;;5014892;28;20186;-88
2022/10/08 03:41:58;;;;;;;11.23;4.23;;;14.00;99.90;;;;;;5020207;28;20171;-91
2022/10/08 03:44:27;;;;;;;10.00;3.87;;;14.00;99.90;;;;;;5019906;28;20191;-90
2022/10/08 03:46:52;;;;;;;9.60;4.30;;;13.80;99.90;;;;;;5020985;28;20159;-90
2022/10/08 03:49:18;;;;;;;9.90;4.87;;;13.80;99.90;;;;;;5008639;28;20194;-91
2022/10/08 03:51:44;;;;;;;10.63;4.70;;;13.90;99.90;;;;;;5016391;28;20188;-91
2022/10/08 03:54:10;;;;;;;11.87;4.73;;;13.90;99.90;;;;;;5018919;28;20181;-90
2022/10/08 03:56:42;;;;;;;14.60;5.87;;;14.00;99.90;;;;;;5009235;28;20180;-91
2022/10/08 03:59:08;;;;;;;12.50;5.80;;;13.80;99.90;;;;;;5014153;28;20220;-90
2022/10/08 04:01:41;;;;;;;9.80;4.67;;;13.80;99.90;;;;;;5001719;28;20176;-90
2022/10/08 04:04:06;;;;;;;13.40;4.60;;;13.70;99.90;;;;;;4998408;28;20617;-90
2022/10/08 04:06:48;;;;;;;12.20;4.50;;;13.60;99.90;;;;;;4999382;28;20224;-87
2022/10/08 04:09:40;;;;;;;12.17;4.43;;;13.70;99.90;;;;;;4999380;28;20204;-87
2022/10/08 04:12:06;;;;;;;10.27;4.50;;;13.70;99.90;;;;;;4999621;28;20251;-86
2022/10/08 04:14:32;;;;;;;10.80;4.50;;;13.60;99.90;;;;;;4999871;28;20176;-86
2022/10/08 04:16:59;;;;;;;12.43;4.40;;;13.60;99.90;;;;;;5015096;28;20199;-89
2022/10/08 04:19:28;;;;;;;15.87;4.97;;;13.70;99.90;;;;;;5018709;28;20269;-87
2022/10/08 04:21:54;;;;;;;12.83;4.80;;;13.70;99.90;;;;;;5007640;28;20175;-88
2022/10/08 04:24:19;;;;;;;12.27;4.77;;;13.60;99.90;;;;;;5009957;28;20186;-89
2022/10/08 04:26:46;;;;;;;13.53;5.17;;;13.80;99.90;;;;;;5009407;28;20210;-87
2022/10/08 04:29:14;;;;;;;10.93;5.30;;;13.70;99.90;;;;;;4999000;28;20175;-86
2022/10/08 04:31:39;;;;;;;10.77;5.47;;;13.60;99.90;;;;;;4996102;28;20180;-88
2022/10/08 04:34:08;;;;;;;9.80;4.63;;;13.50;99.90;;;;;;4997846;28;20175;-89
2022/10/08 04:36:34;;;;;;;11.63;5.53;;;13.50;99.90;;;;;;4996769;28;20191;-89
2022/10/08 04:38:59;;;;;;;11.53;4.97;;;13.40;99.90;;;;;;4998290;28;20425;-89
2022/10/08 04:41:27;;;;;;;12.30;5.60;;;13.60;99.90;;;;;;4996770;28;20171;-89
2022/10/08 04:43:57;;;;;;;14.77;5.80;;;13.40;99.90;;;;;;4996197;28;20184;-88
2022/10/08 04:46:22;;;;;;;11.27;5.37;;;13.40;99.90;;;;;;4996701;28;20226;-86
2022/10/08 04:48:53;;;;;;;12.17;5.37;;;13.40;99.90;;;;;;4995622;28;20185;-89
2022/10/08 04:51:23;;;;;;;13.83;5.80;;;13.40;99.90;;;;;;4996041;28;20179;-88
2022/10/08 04:53:50;;;;;;;12.17;5.90;;;13.40;99.90;;;;;;4996632;28;20176;-88
2022/10/08 04:56:21;;;;;;;14.20;6.10;;;13.50;99.90;;;;;;4995934;28;20179;-86
2022/10/08 04:58:49;;;;;;;14.70;6.23;;;13.50;99.90;;;;;;4995514;28;20226;-90
2022/10/08 05:01:19;;;;;;;11.57;5.70;;;13.60;99.90;;;;;;4994964;28;20199;-90
2022/10/08 05:03:47;;;;;;;13.83;6.43;;;13.70;99.90;;;;;;4995291;28;20179;-88
2022/10/08 05:06:17;;;;;;;10.00;6.07;;;13.60;99.90;;;;;;4995936;28;20208;-88
2022/10/08 05:08:46;;;;;;;12.67;6.33;;;13.50;99.90;;;;;;4995687;28;20690;-88
2022/10/08 05:11:12;;;;;;;13.00;6.70;;;13.40;99.90;;;;;;4995674;28;20168;-87
2022/10/08 05:13:38;;;;;;;12.23;6.33;;;13.50;99.90;;;;;;4995868;28;20233;-86
2022/10/08 05:16:09;;;;;;;17.77;6.67;;;13.40;99.90;;;;;;4995917;28;20203;-87
2022/10/08 05:18:37;;;;;;;14.33;6.57;;;13.60;99.90;;;;;;4996049;28;20266;-85
2022/10/08 05:21:14;;;;;;;12.47;6.13;;;13.50;99.90;;;;;;4995305;28;20284;-89
2022/10/08 05:23:41;;;;;;;12.93;6.57;;;13.50;99.90;;;;;;4995273;28;20230;-88
2022/10/08 05:26:15;;;;;;;12.03;6.73;;;13.70;99.90;;;;;;4994734;28;20179;-87
2022/10/08 05:28:42;;;;;;;14.63;7.23;;;13.60;99.90;;;;;;4996592;28;20174;-88
2022/10/08 05:31:08;;;;;;;15.53;6.13;;;13.50;99.90;;;;;;4994978;28;20543;-87
2022/10/08 05:33:35;;;;;;;12.43;6.53;;;13.40;99.90;;;;;;4994653;28;20180;-86
2022/10/08 05:36:07;;;;;;;13.77;6.27;;;13.30;99.90;;;;;;4995375;28;20175;-87
2022/10/08 05:38:34;;;;;;;14.00;6.43;;;13.30;99.90;;;;;;4995509;28;20208;-88
2022/10/08 05:41:15;;;;;;;13.27;5.83;;;13.40;99.90;;;;;;4997362;28;20236;-88
2022/10/08 05:43:41;;;;;;;10.97;6.27;;;13.30;99.90;;;;;;4998289;28;20175;-89
2022/10/08 05:46:10;;;;;;;13.87;6.23;;;13.30;99.90;;;;;;4998362;28;20183;-89
2022/10/08 05:48:36;;;;;;;14.10;6.10;;;13.20;99.90;;;;;;4996729;28;20168;-90
2022/10/08 05:51:07;;;;;;;11.83;6.00;;;13.10;99.90;;;;;;4997472;28;20176;-88
2022/10/08 05:53:39;;;;;;;14.13;6.83;;;13.20;99.90;;;;;;5000937;28;20175;-88
2022/10/08 05:56:07;;;;;;;15.87;7.17;;;13.30;99.90;;;;;;4999469;28;20200;-89
2022/10/08 05:58:35;;;;;;;18.90;7.00;;;13.30;99.90;;;;;;4999398;28;20203;-88
2022/10/08 06:01:05;;;;;;;25.00;8.20;;;13.40;99.90;;;;;;5007333;28;20588;-89
2022/10/08 06:03:32;;;;;;;15.23;6.67;;;13.40;99.90;;;;;;5010252;28;20231;-90
2022/10/08 06:06:04;;;;;;;17.13;7.77;;;13.50;99.90;;;;;;5004609;28;20181;-89
2022/10/08 06:08:29;;;;;;;14.73;7.13;;;13.50;99.90;;;;;;4998540;28;20167;-90
2022/10/08 06:10:55;;;;;;;17.50;7.43;;;13.50;99.90;;;;;;5009221;28;20190;-87
2022/10/08 06:13:24;;;;;;;13.63;7.57;;;13.40;99.90;;;;;;5007603;28;20163;-90
2022/10/08 06:15:57;;;;;;;15.50;7.20;;;13.50;99.90;;;;;;5010282;28;20235;-89
2022/10/08 06:18:23;;;;;;;17.63;7.00;;;13.30;99.90;;;;;;5001635;28;20264;-90
2022/10/08 06:20:53;;;;;;;15.73;7.20;;;13.40;99.90;;;;;;5012983;28;20183;-89
2022/10/08 06:23:19;;;;;;;16.43;7.63;;;13.50;99.90;;;;;;5015481;28;20210;-88
2022/10/08 06:25:46;;;;;;;12.33;7.10;;;13.60;99.90;;;;;;5016476;28;20234;-87
2022/10/08 06:28:13;;;;;;;16.73;8.47;;;13.40;99.90;;;;;;5014424;28;20179;-89
2022/10/08 06:30:42;;;;;;;18.10;7.83;;;13.50;99.90;;;;;;5001700;28;20237;-86
2022/10/08 06:33:09;;;;;;;13.40;7.07;;;13.40;99.90;;;;;;5012698;28;20206;-89
2022/10/08 06:35:35;;;;;;;13.03;7.93;;;13.40;99.90;;;;;;5011743;28;20176;-89
2022/10/08 06:38:03;;;;;;;22.37;8.70;;;13.50;99.90;;;;;;5006645;28;20215;-90
2022/10/08 06:40:39;;;;;;;13.27;7.37;;;13.50;99.90;;;;;;5015042;28;20160;-91
2022/10/08 06:43:23;;;;;;;15.53;7.70;;;13.30;99.90;;;;;;4983810;28;20167;-89
2022/10/08 06:46:05;;;;;;;20.10;7.77;;;13.20;99.90;;;;;;4997756;28;20170;-91
2022/10/08 06:48:32;;;;;;;13.57;7.53;;;13.20;99.90;;;;;;5015696;28;20189;-91
2022/10/08 06:51:05;;;;;;;15.70;7.80;;;13.10;99.90;;;;;;5014091;28;20203;-91
2022/10/08 06:53:34;;;;;;;15.33;7.40;;;13.30;99.90;;;;;;5011401;28;20179;-89
2022/10/08 06:56:05;;;;;;;15.77;7.83;;;13.30;99.90;;;;;;5005798;28;20178;-91
2022/10/08 06:58:34;;;;;;;15.40;8.23;;;13.20;99.90;;;;;;4996870;28;20302;-89
2022/10/08 07:01:04;;;;;;;14.40;7.53;;;13.40;99.90;;;;;;4996725;28;20270;-89
2022/10/08 07:03:31;;;;;;;15.80;7.20;;;13.30;99.90;;;;;;4999757;28;20197;-90
2022/10/08 07:06:02;;;;;;;15.00;7.47;;;13.30;99.90;;;;;;4985741;28;20274;-90
2022/10/08 07:08:29;;;;;;;18.87;7.47;;;13.40;99.90;;;;;;5008059;28;20213;-92
2022/10/08 07:11:11;;;;;;;16.93;7.37;;;13.40;99.90;;;;;;5006860;28;20534;-92
2022/10/08 07:13:47;;;;;;;13.77;7.13;;;13.50;99.90;;;;;;5002939;28;20188;-91
2022/10/08 07:16:21;;;;;;;16.27;7.80;;;13.40;99.90;;;;;;5001987;28;20165;-92
2022/10/08 07:19:14;;;;;;;13.13;6.70;;;13.50;99.90;;;;;;5006365;28;20207;-91
2022/10/08 07:21:42;;;;;;;15.47;6.40;;;13.40;99.90;;;;;;5001938;28;20278;-90
2022/10/08 07:24:15;;;;;;;16.17;6.90;;;13.50;99.90;;;;;;4982433;28;20226;-90
2022/10/08 07:26:44;;;;;;;14.93;6.37;;;13.60;99.90;;;;;;4999039;28;20183;-92
2022/10/08 07:29:15;;;;;;;12.77;5.93;;;13.60;99.90;;;;;;5003323;28;20182;-91
2022/10/08 07:31:41;;;;;;;13.37;6.00;;;13.70;99.90;;;;;;5012734;28;20191;-87
2022/10/08 07:34:10;;;;;;;12.37;5.70;;;13.90;99.90;;;;;;5002919;28;20184;-90
2022/10/08 07:36:37;;;;;;;16.63;5.90;;;13.80;99.90;;;;;;4994684;28;20176;-90
2022/10/08 07:39:12;;;;;;;15.77;5.33;;;13.90;99.90;;;;;;4996261;28;20218;-91
2022/10/08 07:41:38;;;;;;;13.30;5.30;;;13.90;99.70;;;;;;5000283;28;20175;-90
2022/10/08 07:44:06;;;;;;;14.10;4.93;;;14.00;99.00;;;;;;4996899;28;20183;-89
2022/10/08 07:46:35;;;;;;;15.63;5.70;;;14.20;96.80;;;;;;4996380;28;20172;-91
2022/10/08 07:49:03;;;;;;;8.60;4.13;;;14.20;94.40;;;;;;4998896;28;20168;-90
2022/10/08 07:51:32;;;;;;;12.40;4.40;;;14.10;90.90;;;;;;4997580;28;20643;-91
2022/10/08 07:54:00;;;;;;;10.87;4.00;;;14.10;90.30;;;;;;5000380;28;20179;-90
2022/10/08 07:56:26;;;;;;;11.67;4.80;;;14.00;89.80;;;;;;5003665;28;20183;-90
2022/10/08 07:58:52;;;;;;;16.77;4.63;;;14.10;90.10;;;;;;5000951;28;20207;-91
2022/10/08 08:01:20;;;;;;;17.17;4.83;;;14.00;88.30;;;;;;4998435;28;20258;-92
2022/10/08 08:03:58;;;;;;;17.70;5.10;;;13.90;88.00;;;;;;5002527;28;20202;-92
2022/10/08 08:06:36;;;;;;;10.40;4.23;;;13.90;82.70;;;;;;4999620;28;20189;-86
2022/10/08 08:09:02;;;;;;;13.93;4.23;;;13.90;86.10;;;;;;4999460;28;20173;-87
2022/10/08 08:11:29;;;;;;;9.93;4.23;;;13.80;87.20;;;;;;5001313;28;20172;-90
2022/10/08 08:13:55;;;;;;;11.00;4.00;;;13.80;81.00;;;;;;4999410;28;20239;-87
2022/10/08 08:16:25;;;;;;;10.00;4.13;;;14.10;80.40;;;;;;5013994;28;20183;-86
2022/10/08 08:18:57;;;;;;;9.80;4.13;;;14.10;73.70;;;;;;5018575;28;20210;-88
2022/10/08 08:21:29;;;;;;;10.43;3.77;;;14.20;69.10;;;;;;5017191;28;20199;-90
2022/10/08 08:23:57;;;;;;;11.27;3.60;;;14.20;66.50;;;;;;5014693;28;20187;-89
2022/10/08 08:26:24;;;;;;;11.23;3.73;;;14.30;59.80;;;;;;5012093;28;20243;-89
2022/10/08 08:28:55;;;;;;;11.00;3.40;;;14.30;57.20;;;;;;5002797;28;20178;-87
2022/10/08 08:31:29;;;;;;;11.70;3.93;;;14.40;53.00;;;;;;5007037;28;20167;-90
2022/10/08 08:33:59;;;;;;;10.07;3.30;;;14.40;46.90;;;;;;5009494;28;20202;-90
2022/10/08 08:36:32;;;;;;;9.47;3.10;;;14.50;43.30;;;;;;4999506;28;20167;-89
2022/10/08 08:39:00;;;;;;;12.13;3.17;;;14.50;42.60;;;;;;5001790;28;20265;-91
2022/10/08 08:41:29;;;;;;;9.30;3.20;;;14.60;30.10;;;;;;5008788;28;20186;-88
2022/10/08 08:44:02;;;;;;;12.27;2.97;;;14.60;26.00;;;;;;5014124;28;20198;-86
2022/10/08 08:46:35;;;;;;;8.07;2.90;;;14.70;21.70;;;;;;5012425;28;20204;-91
2022/10/08 08:49:20;;;;;;;9.80;2.17;;;14.80;12.90;;;;;;5025958;28;20184;-89
2022/10/08 08:51:50;;;;;;;8.47;2.13;;;14.80;1.00;;;;;;5003343;28;20219;-88
2022/10/08 08:54:17;;;;;;;9.47;2.00;;;14.80;1.00;;;;;;5021606;28;20319;-89
2022/10/08 08:56:43;;;;;;;8.27;2.50;;;14.80;1.00;;;;;;5020483;28;20184;-88
2022/10/08 08:59:32;;;;;;;5.83;1.87;;;14.80;1.00;;;;;;5022278;28;20228;-87
2022/10/08 09:02:04;;;;;;;6.67;2.30;;;15.00;1.00;;;;;;4978273;28;20185;-87
2022/10/08 09:04:47;;;;;;;11.50;2.60;;;15.00;1.00;;;;;;4981689;28;20173;-89
2022/10/08 09:07:20;;;;;;;5.97;2.07;;;15.30;1.00;;;;;;4978739;28;20186;-88
2022/10/08 09:09:50;;;;;;;6.83;2.10;;;15.40;1.00;;;;;;4980702;28;20179;-88
2022/10/08 09:12:27;;;;;;;7.13;1.70;;;15.30;1.00;;;;;;4999138;28;20176;-89
2022/10/08 09:14:55;;;;;;;13.03;2.53;;;15.20;1.00;;;;;;4999137;28;20189;-90
2022/10/08 09:17:34;;;;;;;7.20;2.00;;;15.30;1.00;;;;;;5012627;28;20244;-89
2022/10/08 09:20:00;;;;;;;9.30;2.27;;;15.30;1.00;;;;;;5016684;28;20205;-88
2022/10/08 09:22:36;;;;;;;7.93;1.97;;;15.30;1.00;;;;;;4997616;28;20189;-87
2022/10/08 09:25:24;;;;;;;7.23;1.90;;;15.50;1.00;;;;;;4999766;28;20626;-88
2022/10/08 09:27:53;;;;;;;5.80;1.97;;;15.60;1.00;;;;;;4997646;28;20171;-89
2022/10/08 09:30:37;;;;;;;7.83;2.00;;;15.50;1.00;;;;;;4997360;28;20178;-88
2022/10/08 09:33:28;;;;;;;6.23;1.50;;;15.40;1.00;;;;;;4999861;28;20228;-90
2022/10/08 09:35:55;;;;;;;8.30;2.13;;;15.20;1.00;;;;;;5004270;28;20178;-87
2022/10/08 09:38:31;;;;;;;6.33;1.70;;;15.20;1.00;;;;;;4999703;28;20231;-90
2022/10/08 09:41:17;;;;;;;6.63;2.53;;;15.30;1.00;;;;;;5004141;28;20175;-88
2022/10/08 09:44:03;;;;;;;8.70;2.00;;;15.40;1.00;;;;;;4982875;28;20182;-89
2022/10/08 09:46:31;;;;;;;8.43;1.80;;;15.30;1.00;;;;;;4984243;28;20181;-88
2022/10/08 09:49:32;;;;;;;7.10;2.17;;;15.30;1.00;;;;;;4981797;28;20245;-90
2022/10/08 09:52:22;;;;;;;7.17;1.90;;;15.50;1.00;;;;;;4997875;28;20187;-88
2022/10/08 09:54:57;;;;;;;6.47;1.60;;;15.60;1.00;;;;;;5001862;28;20202;-90
2022/10/08 09:57:28;;;;;;;5.53;1.67;;;15.50;1.00;;;;;;4968430;28;20194;-89
2022/10/08 10:00:25;;;;;;;7.13;1.73;;;15.40;1.00;;;;;;4977497;28;20183;-87
2022/10/08 10:02:56;;;;;;;9.37;2.13;;;15.40;1.00;;;;;;4993353;28;20182;-86
2022/10/08 10:05:26;;;;;;;6.70;1.50;;;15.30;1.00;;;;;;4996185;28;20177;-89
2022/10/08 10:07:53;;;;;;;6.87;1.47;;;15.30;1.00;;;;;;4995670;28;20171;-88
2022/10/08 10:10:33;;;;;;;6.67;1.80;;;15.30;1.00;;;;;;4995704;28;20545;-87
2022/10/08 10:13:18;;;;;;;7.80;1.77;;;15.30;1.00;;;;;;4993701;28;20193;-86
2022/10/08 10:16:03;;;;;;;4.87;1.50;;;15.30;1.00;;;;;;4995873;28;20260;-86
2022/10/08 10:18:33;;;;;;;6.90;1.50;;;15.40;1.00;;;;;;4996748;28;20225;-87
2022/10/08 10:21:04;;;;;;;5.63;1.40;;;15.80;1.00;;;;;;4997415;28;20194;-83
2022/10/08 10:23:45;;;;;;;6.43;1.83;;;15.90;1.00;;;;;;5005321;28;20170;-85
2022/10/08 10:26:18;;;;;;;4.93;1.80;;;15.90;1.00;;;;;;5011293;28;20201;-86
2022/10/08 10:28:49;;;;;;;6.87;1.53;;;16.00;1.00;;;;;;5012835;28;20175;-88
2022/10/08 10:31:24;;;;;;;4.33;1.20;;;16.20;1.00;;;;;;5012965;28;20185;-86
2022/10/08 10:33:54;;;;;;;6.20;1.53;;;16.20;1.00;;;;;;5012034;28;20167;-88
2022/10/08 10:36:23;;;;;;;6.57;1.70;;;16.20;1.00;;;;;;5012467;28;20229;-87
2022/10/08 10:39:26;;;;;;;4.67;1.40;;;16.10;1.00;;;;;;5013046;28;20203;-91
2022/10/08 10:42:05;;;;;;;4.63;1.43;;;15.70;1.00;;;;;;5015423;28;20186;-87
2022/10/08 10:44:48;;;;;;;5.87;1.57;;;15.60;1.00;;;;;;5015560;28;20193;-87
2022/10/08 10:47:14;;;;;;;5.33;1.43;;;15.60;1.00;;;;;;4997830;28;20185;-86
2022/10/08 10:49:43;;;;;;;6.57;1.70;;;15.70;1.00;;;;;;5013448;28;20183;-88
2022/10/08 10:52:30;;;;;;;6.50;1.40;;;15.60;1.00;;;;;;5008282;28;20195;-86
2022/10/08 10:55:08;;;;;;;4.67;1.60;;;15.70;1.00;;;;;;5003428;28;20170;-86
2022/10/08 10:58:20;;;;;;;4.07;1.30;;;15.90;1.00;;;;;;5002838;28;20725;-85
2022/10/08 11:01:27;;;;;;;6.53;1.80;;;16.10;1.00;;;;;;5005443;28;20212;-88
2022/10/08 11:04:30;;;;;;;3.00;1.10;;;16.30;1.00;;;;;;4997853;28;20199;-87
2022/10/08 11:07:31;;;;;;;7.10;1.40;;;16.50;1.00;;;;;;5000988;28;20159;-86
2022/10/08 11:10:19;;;;;;;7.23;1.60;;;16.20;1.00;;;;;;4995694;28;20179;-86
2022/10/08 11:12:54;;;;;;;3.60;1.30;;;16.10;1.00;;;;;;5001180;28;20195;-86
2022/10/08 11:15:29;;;;;;;5.20;1.40;;;16.10;1.00;;;;;;4999947;28;20254;-85
2022/10/08 11:18:23;;;;;;;6.30;1.83;;;16.20;1.00;;;;;;4994323;28;20199;-86
2022/10/08 11:21:12;;;;;;;9.13;1.60;;;16.20;1.00;;;;;;4994228;28;20195;-86
2022/10/08 11:24:06;;;;;;;6.40;1.60;;;16.20;99.90;;;;;;4997173;28;20182;-86
2022/10/08 11:27:11;;;;;;;;;;;;;;;;;;;;;
2022/10/08 11:30:13;;;;;;;5.77;1.33;;;16.30;1.00;;;;;;5001696;28;20242;-85
2022/10/08 11:33:23;;;;;;;;;;;;;;;;;;;;;
2022/10/08 11:36:17;;;;;;;5.80;1.70;;;16.50;1.00;;;;;;5019141;28;20273;-87
2022/10/08 11:38:50;;;;;;;4.57;1.40;;;16.30;1.00;;;;;;5019647;28;20230;-85
2022/10/08 11:41:23;;;;;;;6.07;1.40;;;16.40;1.00;;;;;;5017387;28;20178;-84
2022/10/08 11:43:55;;;;;;;6.97;1.90;;;16.50;1.00;;;;;;5004235;28;20195;-87
2022/10/08 11:46:32;;;;;;;4.23;1.40;;;16.40;1.00;;;;;;5000154;28;20171;-89
2022/10/08 11:49:21;;;;;;;7.80;1.93;;;16.30;99.90;;;;;;4998363;28;20214;-89
2022/10/08 11:51:51;;;;;;;6.03;1.83;;;16.00;1.00;;;;;;4996812;28;20183;-88
2022/10/08 11:54:30;;;;;;;8.13;2.63;;;16.20;99.90;;;;;;4997361;28;20182;-86
2022/10/08 11:57:33;;;;;;;6.07;2.30;;;16.10;1.00;;;;;;4997655;28;20175;-87
2022/10/08 12:00:27;;;;;;;7.90;2.67;;;16.10;1.00;;;;;;4998990;28;20245;-86
2022/10/08 12:02:54;;;;;;;10.07;2.27;;;16.10;1.00;;;;;;4996105;28;20166;-85
2022/10/08 12:05:42;;;;;;;6.83;2.00;;;16.10;1.00;;;;;;4997711;28;20320;-86
2022/10/08 12:08:09;;;;;;;5.53;1.80;;;16.10;1.00;;;;;;4996130;28;20171;-85
2022/10/08 12:10:38;;;;;;;3.33;1.17;;;16.20;1.00;;;;;;4996484;28;20210;-85
2022/10/08 12:13:25;;;;;;;6.80;1.10;;;16.10;1.00;;;;;;4999899;28;20175;-86
2022/10/08 12:15:52;;;;;;;3.37;1.17;;;16.20;99.90;;;;;;4997705;28;20556;-87
2022/10/08 12:18:21;;;;;;;6.07;1.50;;;16.20;99.90;;;;;;4996879;28;20202;-86
2022/10/08 12:21:15;;;;;;;4.70;1.37;;;16.40;99.90;;;;;;4995984;28;20191;-85
2022/10/08 12:23:45;;;;;;;7.97;1.60;;;16.40;99.90;;;;;;4995923;28;20175;-86
2022/10/08 12:26:15;;;;;;;4.63;1.43;;;16.40;99.90;;;;;;4996231;28;20183;-87
2022/10/08 12:28:41;;;;;;;6.40;1.50;;;16.70;99.90;;;;;;4995581;28;20275;-85
2022/10/08 12:31:38;;;;;;;4.00;1.20;;;16.80;99.90;;;;;;4995910;28;20196;-85
2022/10/08 12:34:16;;;;;;;4.13;2.10;;;16.80;99.90;;;;;;4994512;28;20175;-87
2022/10/08 12:37:01;;;;;;;6.73;1.67;;;16.90;99.90;;;;;;4997303;28;20181;-88
2022/10/08 12:39:30;;;;;;;3.70;1.57;;;17.00;99.90;;;;;;4996830;28;20222;-87
2022/10/08 12:42:31;;;;;;;5.30;1.30;;;17.10;3.90;;;;;;4996128;28;20256;-87
2022/10/08 12:45:06;;;;;;;9.63;1.63;;;17.20;97.90;;;;;;4998621;28;20265;-89
2022/10/08 12:47:48;;;;;;;5.63;1.93;;;17.20;90.10;;;;;;4998283;28;20179;-88
2022/10/08 12:50:37;;;;;;;5.03;1.33;;;17.10;99.90;;;;;;4996073;28;20544;-87
2022/10/08 12:53:05;;;;;;;6.67;2.10;;;17.00;99.90;;;;;;4995718;28;20171;-86
2022/10/08 12:55:36;;;;;;;5.70;1.90;;;17.10;99.90;;;;;;5000060;28;20265;-86
2022/10/08 12:58:02;;;;;;;4.90;1.40;;;17.20;99.90;;;;;;4995842;28;20667;-86
2022/10/08 13:00:30;;;;;;;17.17;2.80;;;17.30;99.90;;;;;;4995894;28;20214;-87
2022/10/08 13:03:00;;;;;;;6.90;1.60;;;17.30;99.90;;;;;;4995252;28;20253;-87
2022/10/08 13:05:35;;;;;;;6.30;2.20;;;17.50;99.90;;;;;;4999026;28;20167;-86
2022/10/08 13:08:23;;;;;;;5.53;1.20;;;17.30;99.90;;;;;;5009476;28;20178;-85
2022/10/08 13:10:51;;;;;;;4.27;1.30;;;16.90;99.90;;;;;;5015107;28;20179;-85
2022/10/08 13:13:39;;;;;;;5.43;1.23;;;16.80;99.90;;;;;;5015105;28;20170;-88
2022/10/08 13:16:13;;;;;;;5.77;1.70;;;16.60;99.90;;;;;;5011217;28;20184;-89
2022/10/08 13:18:44;;;;;;;6.50;1.67;;;16.70;99.90;;;;;;5005225;28;20242;-87
2022/10/08 13:21:27;;;;;;;8.50;1.70;;;16.70;99.90;;;;;;5011373;28;20190;-87